Time;durP1;ratioP1;P1;durP2;ratioP2;P2;SDS_P1;SDS_P2;PMS_P1;PMS_P2;Temp;Humidity;BMP_temperature;BMP_pressure;BME280_temperature;BME280_humidity;BME280_pressure;Samples;Min_cycle;Max_cycle;Signal;HPM_P1;HPM_P2
2022/09/21 00:01:39;;;;;;;;;9.40;6.80;;;;;15.78;55.94;99625.78;5067193;28;8861;-74
2022/09/21 00:04:08;;;;;;;;;9.00;6.00;;;;;14.46;59.81;99631.56;5048423;28;8866;-73
2022/09/21 00:06:38;;;;;;;;;9.40;8.20;;;;;14.48;60.12;99632.41;5067328;28;8862;-74
2022/09/21 00:09:08;;;;;;;;;9.20;9.20;;;;;14.24;61.07;99636.25;5067384;28;8885;-74
2022/09/21 00:11:37;;;;;;;;;11.40;9.80;;;;;13.91;61.93;99648.91;5038428;28;9738;-73
2022/09/21 00:14:09;;;;;;;;;10.00;8.80;;;;;14.15;61.72;99636.38;5069115;28;8847;-74
2022/09/21 00:16:39;;;;;;;;;8.60;8.60;;;;;14.49;60.24;99633.28;5087070;28;8879;-73
2022/09/21 00:19:07;;;;;;;;;8.00;8.00;;;;;14.60;59.88;99631.38;5087896;28;8916;-74
2022/09/21 00:21:38;;;;;;;;;7.20;6.20;;;;;14.21;61.09;99637.19;5074771;28;8862;-73
2022/09/21 00:24:07;;;;;;;;;4.00;4.00;;;;;14.16;61.23;99632.88;5067809;28;8854;-75
2022/09/21 00:26:35;;;;;;;;;9.60;8.00;;;;;14.40;60.39;99640.41;5067957;28;8838;-74
2022/09/21 00:29:04;;;;;;;;;9.80;7.80;;;;;14.44;60.46;99638.56;5035743;28;8878;-73
2022/09/21 00:31:34;;;;;;;;;9.80;8.80;;;;;14.52;60.25;99641.97;5071107;28;8888;-74
2022/09/21 00:34:06;;;;;;;;;5.00;5.00;;;;;14.69;59.51;99633.88;5070994;28;8880;-74
2022/09/21 00:36:35;;;;;;;;;8.00;7.80;;;;;14.84;58.97;99639.75;5068595;28;8830;-73
2022/09/21 00:39:05;;;;;;;;;8.80;7.40;;;;;14.80;59.38;99641.56;5070805;28;8858;-74
2022/09/21 00:41:34;;;;;;;;;11.20;9.60;;;;;15.06;58.56;99640.25;5070378;28;8881;-75
2022/09/21 00:44:32;;;;;;;;;9.00;9.00;;;;;15.36;57.96;99634.44;5070081;28;8849;-74
2022/09/21 00:47:07;;;;;;;;;9.80;9.80;;;;;15.10;58.26;99634.91;5070530;28;8896;-76
2022/09/21 00:49:36;;;;;;;;;8.40;8.40;;;;;14.92;58.81;99635.25;5070229;28;8862;-73
2022/09/21 00:52:07;;;;;;;;;8.60;7.80;;;;;15.16;58.14;99641.81;5070381;28;8944;-73
2022/09/21 00:54:43;;;;;;;;;10.80;10.20;;;;;14.40;60.92;99640.41;5070196;28;8854;-74
2022/09/21 00:57:14;;;;;;;;;8.80;8.40;;;;;14.88;59.27;99638.84;5070106;28;8877;-73
2022/09/21 00:59:44;;;;;;;;;10.80;9.20;;;;;15.04;58.84;99648.16;5102259;27;8901;-73
2022/09/21 01:02:14;;;;;;;;;8.20;8.20;;;;;15.19;58.17;99647.03;5070239;28;8850;-74
2022/09/21 01:04:43;;;;;;;;;8.00;7.20;;;;;14.72;59.65;99639.06;5034978;28;8985;-74
2022/09/21 01:07:17;;;;;;;;;9.80;8.80;;;;;15.05;58.86;99651.66;5070091;28;8858;-76
2022/09/21 01:09:50;;;;;;;;;10.00;9.00;;;;;14.78;59.87;99644.22;5069949;28;8861;-74
2022/09/21 01:12:33;;;;;;;;;12.00;11.00;;;;;14.44;61.20;99651.69;5069983;28;8854;-78
2022/09/21 01:15:19;;;;;;;;;10.20;9.00;;;;;14.84;59.60;99648.50;5069495;28;9677;-74
2022/09/21 01:17:55;;;;;;;;;10.40;10.40;;;;;14.76;59.57;99640.75;5068441;28;8913;-76
2022/09/21 01:21:00;;;;;;;;;7.20;6.80;;;;;15.01;59.02;99642.97;5069803;28;9636;-75
2022/09/21 01:23:53;;;;;;;;;11.60;10.00;;;;;15.07;58.76;99640.25;5069554;28;8868;-74
2022/09/21 01:26:36;;;;;;;;;11.20;10.00;;;;;14.81;59.61;99645.94;5084872;28;8943;-74
2022/09/21 01:29:22;;;;;;;;;11.00;8.00;;;;;14.94;59.08;99638.72;5052252;28;8854;-73
2022/09/21 01:31:56;;;;;;;;;9.00;8.40;;;;;15.07;58.46;99640.25;5074993;28;8858;-74
2022/09/21 01:34:30;;;;;;;;;7.60;7.20;;;;;14.74;59.56;99639.88;5069721;28;8864;-74
2022/09/21 01:37:06;;;;;;;;;8.00;8.00;;;;;14.91;58.92;99637.00;5067234;28;8854;-73
2022/09/21 01:39:36;;;;;;;;;9.00;8.80;;;;;15.04;58.55;99635.03;5068074;28;8889;-74
2022/09/21 01:42:07;;;;;;;;;4.60;4.60;;;;;14.97;58.26;99631.66;5069502;28;8830;-74
2022/09/21 01:44:40;;;;;;;;;7.80;7.80;;;;;15.18;58.09;99629.56;5069529;28;8872;-74
2022/09/21 01:47:12;;;;;;;;;9.00;8.60;;;;;14.96;58.37;99631.69;5069334;28;8858;-74
2022/09/21 01:49:45;;;;;;;;;8.20;8.00;;;;;15.14;57.99;99627.84;5069365;28;8846;-73
2022/09/21 01:52:21;;;;;;;;;5.00;5.00;;;;;15.21;57.67;99637.34;5069322;28;8939;-74
2022/09/21 01:54:54;;;;;;;;;9.40;8.40;;;;;15.16;57.82;99640.09;5069387;28;8944;-74
2022/09/21 01:57:29;;;;;;;;;9.60;8.60;;;;;14.58;59.50;99631.41;5050607;28;9025;-74
2022/09/21 02:00:01;;;;;;;;;7.60;7.60;;;;;14.29;61.13;99649.28;5069476;28;8869;-72
2022/09/21 02:02:44;;;;;;;;;9.20;7.60;;;;;14.55;59.89;99647.16;5069202;28;8931;-74
2022/09/21 02:05:16;;;;;;;;;6.80;5.60;;;;;13.60;63.41;99654.53;5068903;28;8894;-73
2022/09/21 02:07:45;;;;;;;;;6.80;6.00;;;;;13.99;62.10;99657.56;5069034;28;8835;-75
2022/09/21 02:10:20;;;;;;;;;8.00;7.40;;;;;14.02;61.97;99657.50;5068561;28;8988;-75
2022/09/21 02:12:50;;;;;;;;;7.00;7.00;;;;;14.00;61.71;99656.66;5066524;28;8936;-74
2022/09/21 02:15:26;;;;;;;;;8.00;8.00;;;;;13.84;62.37;99658.63;5067509;28;8846;-74
2022/09/21 02:18:06;;;;;;;;;7.60;5.00;;;;;14.08;61.79;99660.94;5068835;28;8834;-75
2022/09/21 02:20:41;;;;;;;;;5.20;5.20;;;;;14.29;60.98;99649.28;5071669;28;8817;-74
2022/09/21 02:23:21;;;;;;;;;7.20;7.20;;;;;14.09;61.35;99645.19;5069660;28;8830;-74
2022/09/21 02:25:57;;;;;;;;;7.40;5.80;;;;;14.06;61.52;99645.22;5086145;28;8846;-74
2022/09/21 02:28:32;;;;;;;;;7.20;7.20;;;;;14.04;61.86;99657.50;5085904;28;8849;-74
2022/09/21 02:31:09;;;;;;;;;9.60;7.80;;;;;14.13;61.75;99654.75;5085903;28;8881;-74
2022/09/21 02:33:46;;;;;;;;;4.80;4.40;;;;;14.13;61.84;99657.38;5085701;28;8838;-73
2022/09/21 02:36:27;;;;;;;;;3.00;3.00;;;;;14.41;60.76;99651.75;5086131;28;8850;-74
2022/09/21 02:39:04;;;;;;;;;7.00;7.00;;;;;14.55;60.24;99649.78;5075138;28;9672;-75
2022/09/21 02:41:38;;;;;;;;;6.60;6.60;;;;;14.29;61.03;99654.53;5065444;28;8876;-75
2022/09/21 02:44:13;;;;;;;;;7.00;7.00;;;;;14.03;62.25;99658.41;5065437;28;8868;-74
2022/09/21 02:46:52;;;;;;;;;7.00;7.00;;;;;14.02;62.12;99661.91;5065369;28;8855;-74
2022/09/21 02:49:27;;;;;;;;;10.20;7.60;;;;;14.06;62.51;99658.34;5065244;28;8871;-74
2022/09/21 02:52:00;;;;;;;;;8.00;7.00;;;;;13.84;63.12;99660.38;5067069;28;8842;-74
2022/09/21 02:54:32;;;;;;;;;5.00;4.20;;;;;14.09;61.73;99667.94;5068028;28;8850;-74
2022/09/21 02:57:03;;;;;;;;;7.00;7.00;;;;;14.24;61.44;99665.09;5068525;28;8858;-74
2022/09/21 02:59:32;;;;;;;;;3.40;2.40;;;;;14.30;61.21;99657.16;5068050;28;8846;-75
2022/09/21 03:02:02;;;;;;;;;8.20;6.60;;;;;14.41;60.74;99660.50;5068208;28;8876;-75
2022/09/21 03:04:31;;;;;;;;;25.60;25.60;;;;;14.52;60.23;99659.47;5067996;28;8835;-75
2022/09/21 03:07:00;;;;;;;;;10.00;10.00;;;;;14.54;60.03;99670.81;5075864;28;8866;-74
2022/09/21 03:09:28;;;;;;;;;7.00;6.60;;;;;14.49;60.45;99668.25;5086839;28;9627;-74
2022/09/21 03:11:57;;;;;;;;;8.40;8.40;;;;;14.57;59.95;99665.53;5088025;28;8868;-74
2022/09/21 03:14:25;;;;;;;;;8.80;8.80;;;;;14.64;59.64;99668.97;5087873;28;8862;-75
2022/09/21 03:16:53;;;;;;;;;7.60;7.20;;;;;14.46;60.22;99670.94;5087062;28;8855;-75
2022/09/21 03:19:24;;;;;;;;;8.80;7.00;;;;;14.52;60.16;99662.97;5078637;28;8861;-75
2022/09/21 03:21:53;;;;;;;;;8.20;7.80;;;;;13.84;62.98;99668.25;5068032;28;8970;-74
2022/09/21 03:27:04;;;;;;;;;7.40;5.80;;;;;13.81;62.93;99677.00;5067205;28;8857;-74
2022/09/21 03:29:33;;;;;;;;;20.40;18.20;;;;;13.96;62.60;99677.72;5067598;28;8883;-74
2022/09/21 03:32:01;;;;;;;;;8.20;8.20;;;;;13.74;62.95;99677.97;5067930;28;8881;-74
2022/09/21 03:34:33;;;;;;;;;7.60;7.40;;;;;13.80;62.98;99682.28;5067605;28;8864;-73
2022/09/21 03:37:02;;;;;;;;;9.20;8.40;;;;;13.68;63.69;99682.41;5049142;28;8850;-74
2022/09/21 03:39:30;;;;;;;;;9.80;8.40;;;;;13.77;62.89;99683.16;5086277;28;8850;-73
2022/09/21 03:41:59;;;;;;;;;5.20;4.80;;;;;13.68;63.87;99679.78;5088114;28;8877;-75
2022/09/21 03:44:28;;;;;;;;;9.00;8.80;;;;;13.77;63.28;99682.31;5084277;28;8846;-74
2022/09/21 03:46:57;;;;;;;;;9.80;8.60;;;;;13.80;63.06;99685.75;5067600;28;8892;-74
2022/09/21 03:49:25;;;;;;;;;15.60;14.80;;;;;13.71;63.55;99690.25;5067452;28;8878;-74
2022/09/21 03:51:56;;;;;;;;;15.80;14.00;;;;;13.77;63.33;99693.66;5067318;28;8870;-74
2022/09/21 03:54:25;;;;;;;;;9.40;8.40;;;;;13.79;63.11;99683.16;5067737;28;8897;-73
2022/09/21 03:56:54;;;;;;;;;13.80;13.00;;;;;13.77;63.25;99687.53;5070775;28;8838;-74
2022/09/21 03:59:22;;;;;;;;;13.80;13.80;;;;;13.76;63.11;99698.91;5079786;28;8888;-74
2022/09/21 04:01:50;;;;;;;;;13.20;12.80;;;;;13.72;63.99;99695.44;5082099;28;8843;-76
2022/09/21 04:04:19;;;;;;;;;57.25;46.50;;;;;13.62;64.40;99694.69;5072764;28;8922;-74
2022/09/21 04:06:47;;;;;;;;;14.20;12.80;;;;;13.46;64.67;99690.50;5073025;28;8888;-74
2022/09/21 04:09:17;;;;;;;;;9.40;8.00;;;;;13.64;64.23;99692.03;5072456;28;9619;-75
2022/09/21 04:11:47;;;;;;;;;8.80;8.80;;;;;13.25;65.36;99696.75;5071458;28;9670;-74
2022/09/21 04:14:16;;;;;;;;;13.60;12.60;;;;;13.01;66.83;99695.22;5071314;28;8897;-74
2022/09/21 04:16:44;;;;;;;;;9.00;8.40;;;;;12.86;67.50;99694.47;5086184;28;8863;-74
2022/09/21 04:19:13;;;;;;;;;11.60;10.60;;;;;12.91;67.69;99704.03;5084860;28;8863;-74
2022/09/21 04:21:41;;;;;;;;;13.80;9.80;;;;;13.07;66.75;99695.16;5071264;28;8835;-74
2022/09/21 04:24:09;;;;;;;;;8.60;8.60;;;;;12.50;69.36;99703.44;5071216;28;8866;-74
2022/09/21 04:26:40;;;;;;;;;9.20;9.20;;;;;12.16;70.92;99700.13;5071214;28;8846;-74
2022/09/21 04:29:09;;;;;;;;;8.60;8.60;;;;;12.46;70.57;99709.56;5036057;28;8886;-74
2022/09/21 04:31:38;;;;;;;;;7.80;7.80;;;;;12.64;69.45;99705.94;5070260;28;8854;-74
2022/09/21 04:34:07;;;;;;;;;12.60;12.60;;;;;12.88;67.85;99708.41;5070243;28;8827;-74
2022/09/21 04:36:35;;;;;;;;;11.80;10.40;;;;;12.85;68.49;99708.44;5070683;28;8892;-75
2022/09/21 04:39:05;;;;;;;;;10.00;10.00;;;;;13.13;67.11;99716.06;5068243;28;8874;-74
2022/09/21 04:41:33;;;;;;;;;14.60;14.20;;;;;12.77;68.57;99717.22;5070244;28;8885;-75
2022/09/21 04:44:03;;;;;;;;;14.40;12.20;;;;;13.17;67.12;99719.53;5067684;28;8858;-74
2022/09/21 04:46:32;;;;;;;;;13.80;11.80;;;;;12.86;68.32;99725.00;5086043;28;8846;-74
2022/09/21 04:49:01;;;;;;;;;14.00;14.00;;;;;12.43;70.72;99723.50;5070346;28;8977;-74
2022/09/21 04:51:30;;;;;;;;;12.80;12.80;;;;;12.67;69.43;99719.03;5070231;28;8897;-74
2022/09/21 04:53:59;;;;;;;;;11.40;11.40;;;;;12.79;68.99;99712.84;5070597;28;8883;-74
2022/09/21 04:56:27;;;;;;;;;12.40;12.40;;;;;12.77;68.60;99718.06;5070195;28;8894;-74
2022/09/21 04:58:56;;;;;;;;;10.40;10.40;;;;;12.78;68.73;99718.94;5067981;28;9677;-73
2022/09/21 05:01:26;;;;;;;;;12.00;10.00;;;;;12.74;68.58;99723.34;5070106;28;8899;-74
2022/09/21 05:03:57;;;;;;;;;11.60;10.00;;;;;12.92;68.42;99716.25;5070185;28;8854;-75
2022/09/21 05:06:26;;;;;;;;;11.80;9.40;;;;;13.04;67.75;99723.97;5069908;28;9611;-74
2022/09/21 05:11:40;;;;;;;;;6.60;6.60;;;;;13.28;66.97;99720.31;5069685;28;8858;-73
2022/09/21 05:14:09;;;;;;;;;12.80;10.80;;;;;13.05;67.67;99721.38;5069648;28;8903;-73
2022/09/21 05:16:39;;;;;;;;;15.00;13.40;;;;;13.20;67.09;99720.38;5069891;28;9645;-73
2022/09/21 05:19:08;;;;;;;;;10.00;9.20;;;;;13.32;66.24;99729.03;5068812;28;8861;-74
2022/09/21 05:21:36;;;;;;;;;14.20;11.20;;;;;13.31;67.18;99722.03;5067497;28;8924;-73
2022/09/21 05:24:05;;;;;;;;;10.20;9.80;;;;;12.87;68.94;99727.63;5069157;28;10929;-74
2022/09/21 05:26:33;;;;;;;;;14.00;10.20;;;;;13.37;67.27;99730.72;5070019;28;8873;-74
2022/09/21 05:29:03;;;;;;;;;9.60;9.60;;;;;13.71;65.94;99725.16;5050843;28;8893;-75
2022/09/21 05:31:39;;;;;;;;;13.20;13.20;;;;;13.52;65.77;99726.25;5081195;28;8861;-74
2022/09/21 05:34:21;;;;;;;;;10.00;10.00;;;;;13.49;66.53;99731.50;5089634;28;8859;-75
2022/09/21 05:36:57;;;;;;;;;11.80;10.80;;;;;13.38;66.95;99731.59;5089303;28;8970;-76
2022/09/21 05:39:26;;;;;;;;;10.20;10.20;;;;;13.21;67.55;99735.22;5088718;28;9683;-74
2022/09/21 05:41:56;;;;;;;;;11.60;10.00;;;;;12.52;69.92;99747.91;5052023;28;8946;-75
2022/09/21 05:44:27;;;;;;;;;18.80;15.00;;;;;12.69;70.77;99746.03;5076449;28;8989;-75
2022/09/21 05:47:02;;;;;;;;;12.00;9.20;;;;;12.35;71.82;99748.84;5086050;28;8867;-74
2022/09/21 05:49:49;;;;;;;;;10.40;10.40;;;;;12.75;71.33;99746.00;5082307;28;8864;-75
2022/09/21 05:52:28;;;;;;;;;13.20;13.20;;;;;12.63;70.64;99746.94;5089129;28;8989;-74
2022/09/21 05:55:06;;;;;;;;;11.20;11.20;;;;;12.85;70.65;99737.22;5088765;28;8856;-74
2022/09/21 05:57:46;;;;;;;;;16.40;13.40;;;;;12.46;72.73;99743.56;5083239;28;8886;-74
2022/09/21 06:00:18;;;;;;;;;10.00;9.00;;;;;12.71;71.54;99743.44;5068856;28;8850;-76
2022/09/21 06:03:21;;;;;;;;;14.00;13.00;;;;;12.38;72.53;99746.22;5049713;28;8858;-75
2022/09/21 06:05:51;;;;;;;;;14.20;12.80;;;;;12.83;70.98;99741.56;5080295;28;8863;-75
2022/09/21 06:08:20;;;;;;;;;12.80;12.80;;;;;13.33;69.40;99739.50;5087547;28;8858;-74
2022/09/21 06:10:49;;;;;;;;;9.60;9.60;;;;;13.54;68.32;99737.59;5084707;28;8861;-74
2022/09/21 06:13:18;;;;;;;;;8.80;8.80;;;;;13.75;67.05;99734.72;5087616;28;8863;-76
2022/09/21 06:15:47;;;;;;;;;15.40;14.20;;;;;13.07;70.80;99737.06;5087766;28;8863;-74
2022/09/21 06:18:15;;;;;;;;;13.60;11.60;;;;;13.52;68.73;99739.34;5106664;28;8850;-76
2022/09/21 06:20:45;;;;;;;;;10.40;10.40;;;;;13.82;66.87;99738.16;5106189;28;8883;-76
2022/09/21 06:23:15;;;;;;;;;9.40;8.00;;;;;13.91;66.80;99737.19;5078810;28;8870;-75
2022/09/21 06:25:44;;;;;;;;;8.60;8.00;;;;;14.34;65.36;99745.41;5066001;28;9643;-76
2022/09/21 06:28:13;;;;;;;;;12.00;11.00;;;;;14.30;64.85;99737.59;5032213;28;8858;-76
2022/09/21 06:30:43;;;;;;;;;9.20;9.20;;;;;14.58;64.07;99746.88;5069669;28;8860;-74
2022/09/21 06:33:12;;;;;;;;;11.60;10.00;;;;;14.13;64.95;99754.41;5015478;28;8856;-75
2022/09/21 06:35:41;;;;;;;;;12.20;10.80;;;;;13.90;66.64;99757.28;5065334;28;8847;-74
2022/09/21 06:38:09;;;;;;;;;8.00;8.00;;;;;14.00;65.98;99755.44;5069793;28;8958;-75
2022/09/21 06:40:39;;;;;;;;;8.60;8.40;;;;;13.88;66.04;99761.69;5051947;28;8944;-74
2022/09/21 06:43:08;;;;;;;;;10.40;10.40;;;;;13.63;66.96;99763.69;5069185;28;8846;-76
2022/09/21 06:45:37;;;;;;;;;12.20;11.00;;;;;13.90;66.48;99759.06;5052122;28;8868;-75
2022/09/21 06:48:06;;;;;;;;;8.00;8.00;;;;;13.60;66.86;99759.34;5102917;28;8871;-75
2022/09/21 06:50:35;;;;;;;;;9.20;8.80;;;;;13.74;66.68;99766.19;5070229;28;8960;-75
2022/09/21 06:53:04;;;;;;;;;10.60;10.40;;;;;13.05;68.64;99765.88;5032261;28;8975;-75
2022/09/21 06:55:33;;;;;;;;;7.60;7.20;;;;;12.72;70.49;99780.06;5049957;28;8851;-73
2022/09/21 06:58:04;;;;;;;;;8.80;7.00;;;;;12.92;69.47;99769.44;5088585;28;8855;-73
2022/09/21 07:00:33;;;;;;;;;9.00;9.00;;;;;12.62;71.30;99775.72;5087577;28;8848;-78
2022/09/21 07:03:02;;;;;;;;;9.00;9.00;;;;;12.80;70.23;99778.25;5088632;28;8948;-78
2022/09/21 07:05:30;;;;;;;;;6.60;5.00;;;;;13.24;68.98;99766.59;5088057;28;8867;-79
2022/09/21 07:07:59;;;;;;;;;12.60;12.60;;;;;13.25;68.58;99773.59;5086390;28;8875;-73
2022/09/21 07:10:27;;;;;;;;;12.80;12.80;;;;;13.76;67.37;99767.03;5086538;28;8871;-75
2022/09/21 07:12:56;;;;;;;;;14.40;14.40;;;;;13.09;68.60;99766.72;5052658;28;8852;-75
2022/09/21 07:15:28;;;;;;;;;9.00;8.60;;;;;13.33;68.69;99775.31;5086364;28;8831;-78
2022/09/21 07:17:57;;;;;;;;;14.20;10.80;;;;;13.04;69.93;99778.97;5053204;28;8887;-81
2022/09/21 07:20:33;;;;;;;;;11.40;11.40;;;;;13.27;68.57;99778.81;5069712;28;8907;-76
2022/09/21 07:23:09;;;;;;;;;9.60;8.60;;;;;13.62;67.82;99775.06;5069236;28;8874;-77
2022/09/21 07:25:38;;;;;;;;;15.80;14.60;;;;;13.70;67.34;99780.22;5052444;28;8858;-73
2022/09/21 07:28:07;;;;;;;;;10.80;10.80;;;;;14.04;65.54;99785.97;5052567;28;8859;-77
2022/09/21 07:30:38;;;;;;;;;8.40;8.20;;;;;13.98;66.07;99786.91;5068784;28;8856;-75
2022/09/21 07:33:07;;;;;;;;;12.00;10.20;;;;;13.90;66.12;99783.50;5068271;28;8851;-75
2022/09/21 07:35:35;;;;;;;;;12.60;11.00;;;;;13.75;66.23;99791.53;5051532;28;8864;-77
2022/09/21 07:38:07;;;;;;;;;15.00;14.80;;;;;13.67;67.20;99795.97;5051775;28;8847;-74
2022/09/21 07:40:35;;;;;;;;;12.20;12.20;;;;;13.10;67.98;99802.50;5087784;28;8883;-75
2022/09/21 07:43:04;;;;;;;;;21.00;16.80;;;;;13.06;69.06;99806.88;5104502;28;8939;-76
2022/09/21 07:45:33;;;;;;;;;15.40;13.60;;;;;13.06;68.84;99804.28;5094957;28;8871;-75
2022/09/21 07:48:07;;;;;;;;;21.00;18.40;;;;;13.17;69.46;99800.69;5119804;28;8937;-75
2022/09/21 07:50:36;;;;;;;;;12.00;10.80;;;;;13.10;69.46;99802.50;5056417;28;8997;-79
2022/09/21 07:53:05;;;;;;;;;11.40;10.60;;;;;13.16;69.00;99807.69;5088725;28;8932;-77
2022/09/21 07:55:33;;;;;;;;;15.80;14.00;;;;;12.98;69.22;99807.81;5087669;28;8855;-75
2022/09/21 08:00:48;;;;;;;;;16.20;14.00;;;;;13.12;68.84;99816.44;5099639;28;8831;-74
2022/09/21 08:03:18;;;;;;;;;14.40;13.20;;;;;12.75;71.00;99816.66;5066375;28;8878;-75
2022/09/21 08:05:46;;;;;;;;;16.40;15.60;;;;;12.64;71.11;99814.09;5082735;28;9568;-74
2022/09/21 08:08:15;;;;;;;;;17.40;16.00;;;;;12.72;71.59;99819.31;5067523;28;9076;-74
2022/09/21 08:10:44;;;;;;;;;17.60;16.00;;;;;13.20;70.13;99816.41;5050212;28;8955;-75
2022/09/21 08:13:12;;;;;;;;;19.20;15.60;;;;;13.01;69.93;99820.88;5066398;28;8886;-73
2022/09/21 08:15:41;;;;;;;;;15.40;15.40;;;;;13.29;68.52;99818.06;5066298;28;8861;-75
2022/09/21 08:18:22;;;;;;;;;15.00;12.80;;;;;13.17;69.36;99817.28;5049435;28;9023;-76
2022/09/21 08:20:54;;;;;;;;;12.80;11.20;;;;;13.37;68.47;99819.78;5099729;28;8873;-76
2022/09/21 08:23:22;;;;;;;;;17.00;15.80;;;;;13.44;68.80;99821.50;5067631;28;8873;-76
2022/09/21 08:25:51;;;;;;;;;23.60;21.00;;;;;13.70;67.29;99820.38;5065820;28;8967;-76
2022/09/21 08:28:20;;;;;;;;;14.00;14.00;;;;;13.33;68.11;99817.22;5064982;28;8850;-74
2022/09/21 08:30:49;;;;;;;;;18.40;17.80;;;;;13.13;69.22;99815.56;5066798;28;8862;-75
2022/09/21 08:33:17;;;;;;;;;18.60;16.00;;;;;12.90;70.16;99828.78;5065679;28;8866;-74
2022/09/21 08:35:53;;;;;;;;;14.60;12.80;;;;;12.69;71.80;99824.53;5065148;28;8842;-75
2022/09/21 08:38:22;;;;;;;;;23.00;19.40;;;;;13.15;69.74;99819.03;5047367;28;8858;-77
2022/09/21 08:40:52;;;;;;;;;19.00;16.00;;;;;13.35;68.92;99816.31;5064039;28;8864;-74
2022/09/21 08:43:32;;;;;;;;;21.60;21.40;;;;;13.37;68.47;99827.66;5064372;28;8844;-78
2022/09/21 08:46:05;;;;;;;;;14.00;14.00;;;;;13.28;68.81;99819.81;5032801;28;8965;-74
2022/09/21 08:48:40;;;;;;;;;15.60;15.00;;;;;13.32;68.56;99812.84;5065016;28;8969;-75
2022/09/21 08:51:16;;;;;;;;;17.00;15.20;;;;;13.60;67.53;99821.38;5070903;28;8869;-73
2022/09/21 08:53:47;;;;;;;;;20.40;20.00;;;;;13.53;67.73;99830.16;5071354;28;8870;-76
2022/09/21 08:56:16;;;;;;;;;14.60;14.40;;;;;12.96;68.43;99839.22;5070736;28;8850;-74
2022/09/21 08:58:45;;;;;;;;;17.80;16.60;;;;;12.65;70.20;99835.91;5070968;28;8863;-75
2022/09/21 09:01:31;;;;;;;;;18.40;18.20;;;;;12.67;70.69;99832.41;5071075;28;8834;-74
2022/09/21 09:04:16;;;;;;;;;16.40;15.80;;;;;12.93;70.05;99828.78;5070878;28;8857;-76
2022/09/21 09:06:56;;;;;;;;;15.80;14.80;;;;;12.52;70.85;99831.59;5037812;28;8998;-74
2022/09/21 09:09:39;;;;;;;;;15.20;15.00;;;;;12.64;70.42;99840.25;5071194;28;8892;-77
2022/09/21 09:12:22;;;;;;;;;15.60;15.20;;;;;12.72;70.22;99840.25;5071828;28;8966;-76
2022/09/21 09:15:06;;;;;;;;;17.00;16.20;;;;;12.96;69.85;99834.00;5071868;28;8849;-77
2022/09/21 09:17:50;;;;;;;;;15.00;14.60;;;;;12.80;69.99;99842.81;5091331;28;8871;-77
2022/09/21 09:20:21;;;;;;;;;14.60;14.40;;;;;13.12;68.95;99833.88;5089411;28;8860;-76
2022/09/21 09:23:03;;;;;;;;;15.00;14.80;;;;;13.01;70.14;99833.97;5106367;28;8855;-77
2022/09/21 09:25:36;;;;;;;;;22.20;19.60;;;;;12.87;69.97;99834.94;5068668;28;9592;-76
2022/09/21 09:28:18;;;;;;;;;21.20;20.40;;;;;13.19;69.15;99828.59;5085129;28;8865;-75
2022/09/21 09:30:52;;;;;;;;;16.00;16.00;;;;;13.10;69.27;99825.19;5069557;28;8983;-77
2022/09/21 09:33:26;;;;;;;;;20.40;18.80;;;;;13.32;69.26;99818.94;5066839;28;9004;-74
2022/09/21 09:36:01;;;;;;;;;19.20;17.60;;;;;13.76;67.47;99816.84;5067761;28;8881;-72
2022/09/21 09:38:37;;;;;;;;;14.60;14.60;;;;;14.39;65.88;99826.69;5101898;27;8864;-74
2022/09/21 09:41:25;;;;;;;;;20.20;16.20;;;;;13.98;66.04;99826.25;5101739;28;8862;-74
2022/09/21 09:44:11;;;;;;;;;13.80;13.80;;;;;14.16;65.59;99824.34;5067075;28;8881;-77
2022/09/21 09:46:55;;;;;;;;;20.20;20.20;;;;;14.23;65.41;99815.50;5066732;28;8911;-74
2022/09/21 09:49:38;;;;;;;;;16.00;14.20;;;;;15.00;63.24;99811.94;5050505;28;8904;-76
2022/09/21 09:52:11;;;;;;;;;12.60;11.80;;;;;15.23;61.84;99808.09;5067356;28;8863;-78
2022/09/21 09:54:41;;;;;;;;;15.40;15.20;;;;;15.45;60.62;99806.88;5086886;28;8888;-75
2022/09/21 09:57:10;;;;;;;;;16.20;15.40;;;;;15.10;61.92;99810.03;5085687;28;8850;-74
2022/09/21 09:59:44;;;;;;;;;18.60;16.80;;;;;14.82;63.08;99808.69;5053003;28;8850;-76
2022/09/21 10:02:21;;;;;;;;;15.20;14.60;;;;;15.47;61.02;99806.84;5086647;28;8842;-76
2022/09/21 10:05:04;;;;;;;;;13.20;12.60;;;;;15.26;60.23;99803.66;5086376;28;8895;-76
2022/09/21 10:07:36;;;;;;;;;14.40;13.40;;;;;15.30;59.88;99796.63;5069723;28;8872;-73
2022/09/21 10:10:23;;;;;;;;;9.20;9.00;;;;;14.95;62.17;99784.88;5086456;28;8850;-75
2022/09/21 10:12:53;;;;;;;;;13.20;12.60;;;;;15.63;60.60;99789.03;5069200;28;8865;-75
2022/09/21 10:15:24;;;;;;;;;16.20;16.20;;;;;15.22;61.70;99794.09;5069185;28;8853;-76
2022/09/21 10:18:04;;;;;;;;;13.40;12.60;;;;;14.74;62.58;99791.28;5086060;28;9848;-77
2022/09/21 10:20:33;;;;;;;;;13.40;12.20;;;;;14.47;63.18;99797.75;5086556;28;9004;-75
2022/09/21 10:23:04;;;;;;;;;17.60;17.20;;;;;14.30;64.62;99801.44;5091065;28;8906;-73
2022/09/21 10:25:35;;;;;;;;;14.00;14.00;;;;;14.53;63.74;99795.03;5088867;28;8883;-76
2022/09/21 10:28:13;;;;;;;;;21.60;18.40;;;;;14.66;63.67;99795.78;5088135;28;8939;-79
2022/09/21 10:30:42;;;;;;;;;14.40;13.40;;;;;14.48;64.07;99802.09;5070952;28;8861;-76
2022/09/21 10:33:19;;;;;;;;;14.40;14.00;;;;;14.35;64.56;99802.25;5088204;28;8948;-75
2022/09/21 10:35:52;;;;;;;;;16.00;12.60;;;;;14.09;65.74;99810.41;5067997;28;9834;-78
2022/09/21 10:38:27;;;;;;;;;13.40;12.00;;;;;14.42;65.08;99796.06;5084138;28;8850;-76
2022/09/21 10:40:57;;;;;;;;;13.80;13.00;;;;;14.36;65.11;99790.84;5051225;28;8877;-77
2022/09/21 10:43:33;;;;;;;;;18.80;16.60;;;;;14.47;65.00;99795.13;5069689;28;8964;-76
2022/09/21 10:46:07;;;;;;;;;12.60;12.60;;;;;14.33;65.92;99790.00;5068944;28;8881;-74
2022/09/21 10:48:36;;;;;;;;;17.00;17.00;;;;;14.46;66.25;99788.13;5068458;28;8838;-73
2022/09/21 10:51:05;;;;;;;;;16.40;15.40;;;;;14.76;64.99;99785.16;5045861;28;8874;-75
2022/09/21 10:53:37;;;;;;;;;14.60;14.60;;;;;15.00;64.02;99788.28;5045811;28;8858;-74
2022/09/21 10:56:17;;;;;;;;;13.00;13.00;;;;;14.74;65.43;99793.91;5046721;28;8838;-76
2022/09/21 10:59:12;;;;;;;;;14.20;13.00;;;;;15.24;63.61;99788.84;5045829;28;9043;-77
2022/09/21 11:01:45;;;;;;;;;17.80;15.80;;;;;15.66;62.07;99784.59;5029249;28;8873;-79
2022/09/21 11:04:20;;;;;;;;;15.20;15.20;;;;;15.30;63.87;99799.25;5038152;28;8996;-73
2022/09/21 11:06:53;;;;;;;;;13.40;12.00;;;;;14.58;64.94;99796.75;5065522;28;9077;-77
2022/09/21 11:09:28;;;;;;;;;12.40;12.00;;;;;14.50;65.70;99797.69;5065188;28;8933;-74
2022/09/21 11:12:05;;;;;;;;;14.40;14.00;;;;;14.56;65.60;99793.25;5048518;28;8864;-74
2022/09/21 11:14:49;;;;;;;;;16.80;16.40;;;;;14.12;67.22;99797.28;5031770;28;8875;-77
2022/09/21 11:17:35;;;;;;;;;15.80;15.80;;;;;13.93;68.06;99803.56;5045164;28;8897;-74
2022/09/21 11:20:19;;;;;;;;;20.00;19.00;;;;;14.04;68.46;99797.38;5041746;28;8876;-76
2022/09/21 11:23:00;;;;;;;;;18.80;17.80;;;;;14.31;67.74;99794.41;5055954;28;8854;-75
2022/09/21 11:25:37;;;;;;;;;17.00;16.00;;;;;14.09;69.12;99797.28;5045254;28;9043;-73
2022/09/21 11:28:16;;;;;;;;;19.60;18.60;;;;;14.09;69.26;99806.94;5045728;28;8842;-76
2022/09/21 11:31:10;;;;;;;;;17.60;17.40;;;;;13.94;69.24;99800.09;5045183;28;8850;-75
2022/09/21 11:33:57;;;;;;;;;15.80;14.40;;;;;13.96;68.90;99800.94;5065518;28;9708;-78
2022/09/21 11:36:39;;;;;;;;;18.80;18.20;;;;;13.93;69.35;99801.84;5048614;28;8983;-75
2022/09/21 11:39:17;;;;;;;;;18.80;17.60;;;;;13.79;69.72;99798.47;5048498;28;8835;-77
2022/09/21 11:42:01;;;;;;;;;22.00;20.20;;;;;13.88;69.40;99803.63;5050586;28;8840;-77
2022/09/21 11:44:48;;;;;;;;;19.40;18.00;;;;;13.99;68.66;99799.16;5068321;28;8857;-77
2022/09/21 11:47:39;;;;;;;;;21.00;20.40;;;;;14.04;68.76;99799.09;5085270;28;8857;-77
2022/09/21 11:50:23;;;;;;;;;25.00;21.20;;;;;14.48;66.72;99781.97;5058063;27;8868;-76
2022/09/21 11:53:13;;;;;;;;;23.60;23.00;;;;;14.52;66.25;99786.31;5108975;27;8988;-76
2022/09/21 11:56:02;;;;;;;;;19.40;18.60;;;;;14.73;65.73;99784.31;5108610;27;8834;-78
2022/09/21 11:58:38;;;;;;;;;20.20;18.00;;;;;14.77;65.41;99778.13;5125633;27;8937;-77
2022/09/21 12:01:23;;;;;;;;;20.60;19.40;;;;;15.05;64.67;99775.97;5093862;27;8996;-77
2022/09/21 12:04:15;;;;;;;;;16.20;15.20;;;;;15.01;63.93;99769.91;5103000;27;8864;-78
2022/09/21 12:06:57;;;;;;;;;21.80;15.60;;;;;14.32;65.75;99781.28;5065036;28;8900;-76
2022/09/21 12:09:49;;;;;;;;;18.00;17.80;;;;;14.51;65.98;99775.81;5066348;28;8939;-75